sensor_id;sensor_type;location;lat;lon;timestamp;pressure;altitude;pressure_sealevel;temperature
20867;BMP280;10593;48.398;10.698;2023-12-22T00:02:08;94735.75;;;13.38
20867;BMP280;10593;48.398;10.698;2023-12-22T00:04:33;94762.38;;;13.38
20867;BMP280;10593;48.398;10.698;2023-12-22T00:06:59;94748.69;;;13.36
20867;BMP280;10593;48.398;10.698;2023-12-22T00:09:24;94752.13;;;13.37
20867;BMP280;10593;48.398;10.698;2023-12-22T00:11:50;94775.41;;;13.35
20867;BMP280;10593;48.398;10.698;2023-12-22T00:14:16;94778.84;;;13.36
20867;BMP280;10593;48.398;10.698;2023-12-22T00:16:41;94784.91;;;13.35
20867;BMP280;10593;48.398;10.698;2023-12-22T00:19:07;94778.09;;;13.34
20867;BMP280;10593;48.398;10.698;2023-12-22T00:21:33;94779.81;;;13.33
20867;BMP280;10593;48.398;10.698;2023-12-22T00:23:58;94763.53;;;13.33
20867;BMP280;10593;48.398;10.698;2023-12-22T00:26:24;94769.59;;;13.32
20867;BMP280;10593;48.398;10.698;2023-12-22T00:28:49;94774.75;;;13.32
20867;BMP280;10593;48.398;10.698;2023-12-22T00:31:15;94775.69;;;13.31
20867;BMP280;10593;48.398;10.698;2023-12-22T00:33:41;94788.56;;;13.31
20867;BMP280;10593;48.398;10.698;2023-12-22T00:36:07;94779.13;;;13.30
20867;BMP280;10593;48.398;10.698;2023-12-22T00:38:33;94789.56;;;13.28
20867;BMP280;10593;48.398;10.698;2023-12-22T00:40:59;94780.16;;;13.27
20867;BMP280;10593;48.398;10.698;2023-12-22T00:43:25;94782.78;;;13.26
20867;BMP280;10593;48.398;10.698;2023-12-22T00:45:50;94770.81;;;13.25
20867;BMP280;10593;48.398;10.698;2023-12-22T00:48:16;94764.84;;;13.24
20867;BMP280;10593;48.398;10.698;2023-12-22T00:50:42;94778.56;;;13.25
20867;BMP280;10593;48.398;10.698;2023-12-22T00:53:07;94798.44;;;13.23
20867;BMP280;10593;48.398;10.698;2023-12-22T00:55:33;94802.75;;;13.22
20867;BMP280;10593;48.398;10.698;2023-12-22T00:57:59;94807.09;;;13.22
20867;BMP280;10593;48.398;10.698;2023-12-22T01:00:24;94822.63;;;13.20
20867;BMP280;10593;48.398;10.698;2023-12-22T01:02:50;94821.81;;;13.20
20867;BMP280;10593;48.398;10.698;2023-12-22T01:05:16;94839.94;;;13.18
20867;BMP280;10593;48.398;10.698;2023-12-22T01:07:41;94826.22;;;13.18
20867;BMP280;10593;48.398;10.698;2023-12-22T01:10:07;94806.56;;;13.15
20867;BMP280;10593;48.398;10.698;2023-12-22T01:12:34;94813.44;;;13.15
20867;BMP280;10593;48.398;10.698;2023-12-22T01:15:01;94806.72;;;13.12
20867;BMP280;10593;48.398;10.698;2023-12-22T01:17:27;94821.34;;;13.12
20867;BMP280;10593;48.398;10.698;2023-12-22T01:19:53;94817.09;;;13.11
20867;BMP280;10593;48.398;10.698;2023-12-22T01:22:18;94830.06;;;13.09
20867;BMP280;10593;48.398;10.698;2023-12-22T01:24:44;94813.03;;;13.07
20867;BMP280;10593;48.398;10.698;2023-12-22T01:27:11;94794.13;;;13.06
20867;BMP280;10593;48.398;10.698;2023-12-22T01:29:36;94796.81;;;13.05
20867;BMP280;10593;48.398;10.698;2023-12-22T01:32:03;94818.34;;;13.04
20867;BMP280;10593;48.398;10.698;2023-12-22T01:34:29;94820.13;;;13.02
20867;BMP280;10593;48.398;10.698;2023-12-22T01:36:54;94851.97;;;13.01
20867;BMP280;10593;48.398;10.698;2023-12-22T01:39:20;94828.88;;;12.99
20867;BMP280;10593;48.398;10.698;2023-12-22T01:41:46;94855.56;;;12.98
20867;BMP280;10593;48.398;10.698;2023-12-22T01:44:11;94891.72;;;12.97
20867;BMP280;10593;48.398;10.698;2023-12-22T01:46:38;94885.72;;;12.96
20867;BMP280;10593;48.398;10.698;2023-12-22T01:49:05;94867.75;;;12.95
20867;BMP280;10593;48.398;10.698;2023-12-22T01:51:35;94860.94;;;12.94
20867;BMP280;10593;48.398;10.698;2023-12-22T01:54:03;94871.28;;;12.92
20867;BMP280;10593;48.398;10.698;2023-12-22T01:56:30;94849.91;;;12.90
20867;BMP280;10593;48.398;10.698;2023-12-22T01:59:00;94841.41;;;12.88
20867;BMP280;10593;48.398;10.698;2023-12-22T02:01:28;94850.13;;;12.86
20867;BMP280;10593;48.398;10.698;2023-12-22T02:03:56;94856.19;;;12.85
20867;BMP280;10593;48.398;10.698;2023-12-22T02:06:22;94847.72;;;12.83
20867;BMP280;10593;48.398;10.698;2023-12-22T02:08:48;94851.19;;;12.82
20867;BMP280;10593;48.398;10.698;2023-12-22T02:11:17;94823.81;;;12.79
20867;BMP280;10593;48.398;10.698;2023-12-22T02:13:46;94833.31;;;12.79
20867;BMP280;10593;48.398;10.698;2023-12-22T02:19:29;94816.41;;;12.73
20867;BMP280;10593;48.398;10.698;2023-12-22T02:22:07;94816.47;;;12.72
20867;BMP280;10593;48.398;10.698;2023-12-22T02:24:33;94816.56;;;12.70
20867;BMP280;10593;48.398;10.698;2023-12-22T02:27:17;94805.41;;;12.70
20867;BMP280;10593;48.398;10.698;2023-12-22T02:29:52;94801.16;;;12.69
20867;BMP280;10593;48.398;10.698;2023-12-22T02:32:26;94801.22;;;12.67
20867;BMP280;10593;48.398;10.698;2023-12-22T02:34:56;94802.97;;;12.67
20867;BMP280;10593;48.398;10.698;2023-12-22T02:37:26;94802.13;;;12.66
20867;BMP280;10593;48.398;10.698;2023-12-22T02:39:53;94796.16;;;12.66
20867;BMP280;10593;48.398;10.698;2023-12-22T02:42:19;94787.59;;;12.65
20867;BMP280;10593;48.398;10.698;2023-12-22T02:44:48;94774.78;;;12.64
20867;BMP280;10593;48.398;10.698;2023-12-22T02:47:14;94772.28;;;12.62
20867;BMP280;10593;48.398;10.698;2023-12-22T02:49:40;94781.75;;;12.62
20867;BMP280;10593;48.398;10.698;2023-12-22T02:52:05;94784.31;;;12.62
20867;BMP280;10593;48.398;10.698;2023-12-22T02:54:31;94774.09;;;12.60
20867;BMP280;10593;48.398;10.698;2023-12-22T02:56:58;94769.75;;;12.61
20867;BMP280;10593;48.398;10.698;2023-12-22T02:59:25;94752.66;;;12.60
20867;BMP280;10593;48.398;10.698;2023-12-22T03:01:53;94755.31;;;12.58
20867;BMP280;10593;48.398;10.698;2023-12-22T03:04:18;94750.16;;;12.58
20867;BMP280;10593;48.398;10.698;2023-12-22T03:06:44;94761.28;;;12.59
20867;BMP280;10593;48.398;10.698;2023-12-22T03:09:09;94754.53;;;12.56
20867;BMP280;10593;48.398;10.698;2023-12-22T03:11:35;94751.97;;;12.56
20867;BMP280;10593;48.398;10.698;2023-12-22T03:14:01;94748.56;;;12.56
20867;BMP280;10593;48.398;10.698;2023-12-22T03:16:26;94757.19;;;12.55
20867;BMP280;10593;48.398;10.698;2023-12-22T03:18:52;94747.81;;;12.54
20867;BMP280;10593;48.398;10.698;2023-12-22T03:21:19;94753.88;;;12.53
20867;BMP280;10593;48.398;10.698;2023-12-22T03:23:45;94757.38;;;12.52
20867;BMP280;10593;48.398;10.698;2023-12-22T03:26:11;94747.06;;;12.52
20867;BMP280;10593;48.398;10.698;2023-12-22T03:28:36;94752.28;;;12.50
20867;BMP280;10593;48.398;10.698;2023-12-22T03:31:03;94750.59;;;12.49
20867;BMP280;10593;48.398;10.698;2023-12-22T03:33:28;94742.13;;;12.48
20867;BMP280;10593;48.398;10.698;2023-12-22T03:35:54;94743.84;;;12.47
20867;BMP280;10593;48.398;10.698;2023-12-22T03:38:19;94749.91;;;12.46
20867;BMP280;10593;48.398;10.698;2023-12-22T03:40:45;94731.88;;;12.46
20867;BMP280;10593;48.398;10.698;2023-12-22T03:43:11;94736.28;;;12.44
20867;BMP280;10593;48.398;10.698;2023-12-22T03:45:36;94745.69;;;12.45
20867;BMP280;10593;48.398;10.698;2023-12-22T03:48:02;94748.25;;;12.45
20867;BMP280;10593;48.398;10.698;2023-12-22T03:50:28;94755.16;;;12.45
20867;BMP280;10593;48.398;10.698;2023-12-22T03:52:53;94759.47;;;12.44
20867;BMP280;10593;48.398;10.698;2023-12-22T03:55:19;94756.88;;;12.44
20867;BMP280;10593;48.398;10.698;2023-12-22T03:57:45;94750.06;;;12.43
20867;BMP280;10593;48.398;10.698;2023-12-22T04:00:11;94751.75;;;12.44
20867;BMP280;10593;48.398;10.698;2023-12-22T04:02:39;94760.38;;;12.43
20867;BMP280;10593;48.398;10.698;2023-12-22T04:05:05;94746.59;;;12.44
20867;BMP280;10593;48.398;10.698;2023-12-22T04:07:31;94745.78;;;12.44
20867;BMP280;10593;48.398;10.698;2023-12-22T04:09:56;94739.78;;;12.43
20867;BMP280;10593;48.398;10.698;2023-12-22T04:12:22;94732.94;;;12.42
20867;BMP280;10593;48.398;10.698;2023-12-22T04:14:48;94737.25;;;12.42
20867;BMP280;10593;48.398;10.698;2023-12-22T04:17:13;94732.09;;;12.42
20867;BMP280;10593;48.398;10.698;2023-12-22T04:19:39;94729.53;;;12.42
20867;BMP280;10593;48.398;10.698;2023-12-22T04:22:04;94745.84;;;12.42
20867;BMP280;10593;48.398;10.698;2023-12-22T04:24:30;94740.75;;;12.41
20867;BMP280;10593;48.398;10.698;2023-12-22T04:26:56;94743.31;;;12.41
20867;BMP280;10593;48.398;10.698;2023-12-22T04:29:22;94739.94;;;12.40
20867;BMP280;10593;48.398;10.698;2023-12-22T04:31:47;94728.88;;;12.38
20867;BMP280;10593;48.398;10.698;2023-12-22T04:34:14;94734.78;;;12.40
20867;BMP280;10593;48.398;10.698;2023-12-22T04:36:42;94739.16;;;12.38
20867;BMP280;10593;48.398;10.698;2023-12-22T04:39:08;94752.03;;;12.38
20867;BMP280;10593;48.398;10.698;2023-12-22T04:41:33;94743.47;;;12.38
20867;BMP280;10593;48.398;10.698;2023-12-22T04:43:59;94750.38;;;12.37
20867;BMP280;10593;48.398;10.698;2023-12-22T04:46:29;94746.91;;;12.38
20867;BMP280;10593;48.398;10.698;2023-12-22T04:48:55;94750.38;;;12.37
20867;BMP280;10593;48.398;10.698;2023-12-22T04:51:21;94776.13;;;12.37
20867;BMP280;10593;48.398;10.698;2023-12-22T04:53:46;94766.66;;;12.38
20867;BMP280;10593;48.398;10.698;2023-12-22T04:56:13;94775.28;;;12.37
20867;BMP280;10593;48.398;10.698;2023-12-22T04:58:38;94768.41;;;12.37
20867;BMP280;10593;48.398;10.698;2023-12-22T05:01:04;94791.59;;;12.37
20867;BMP280;10593;48.398;10.698;2023-12-22T05:03:30;94791.59;;;12.37
20867;BMP280;10593;48.398;10.698;2023-12-22T05:05:55;94804.47;;;12.37
20867;BMP280;10593;48.398;10.698;2023-12-22T05:08:21;94809.63;;;12.37
20867;BMP280;10593;48.398;10.698;2023-12-22T05:10:47;94839.59;;;12.38
20867;BMP280;10593;48.398;10.698;2023-12-22T05:13:12;94845.66;;;12.37
20867;BMP280;10593;48.398;10.698;2023-12-22T05:15:38;94844.75;;;12.38
20867;BMP280;10593;48.398;10.698;2023-12-22T05:18:04;94850.81;;;12.37
20867;BMP280;10593;48.398;10.698;2023-12-22T05:20:30;94852.53;;;12.37
20867;BMP280;10593;48.398;10.698;2023-12-22T05:22:55;94866.28;;;12.37
20867;BMP280;10593;48.398;10.698;2023-12-22T05:25:21;94878.31;;;12.37
20867;BMP280;10593;48.398;10.698;2023-12-22T05:27:46;94872.31;;;12.36
20867;BMP280;10593;48.398;10.698;2023-12-22T05:30:13;94879.22;;;12.36
20867;BMP280;10593;48.398;10.698;2023-12-22T05:32:39;94872.31;;;12.36
20867;BMP280;10593;48.398;10.698;2023-12-22T05:35:05;94873.16;;;12.37
20867;BMP280;10593;48.398;10.698;2023-12-22T05:37:31;94866.34;;;12.36
20867;BMP280;10593;48.398;10.698;2023-12-22T05:39:56;94857.75;;;12.35
20867;BMP280;10593;48.398;10.698;2023-12-22T05:42:22;94844.88;;;12.35
20867;BMP280;10593;48.398;10.698;2023-12-22T05:44:48;94851.78;;;12.35
20867;BMP280;10593;48.398;10.698;2023-12-22T05:47:18;94843.22;;;12.34
20867;BMP280;10593;48.398;10.698;2023-12-22T05:49:44;94836.41;;;12.33
20867;BMP280;10593;48.398;10.698;2023-12-22T05:52:11;94839.72;;;12.35
20867;BMP280;10593;48.398;10.698;2023-12-22T05:54:38;94836.41;;;12.33
20867;BMP280;10593;48.398;10.698;2023-12-22T05:57:04;94856.19;;;12.33
20867;BMP280;10593;48.398;10.698;2023-12-22T05:59:32;94864.72;;;12.33
20867;BMP280;10593;48.398;10.698;2023-12-22T06:01:58;94865.63;;;12.32
20867;BMP280;10593;48.398;10.698;2023-12-22T06:04:25;94869.13;;;12.31
20867;BMP280;10593;48.398;10.698;2023-12-22T06:06:51;94868.22;;;12.32
20867;BMP280;10593;48.398;10.698;2023-12-22T06:09:16;94851.94;;;12.32
20867;BMP280;10593;48.398;10.698;2023-12-22T06:11:45;94868.28;;;12.31
20867;BMP280;10593;48.398;10.698;2023-12-22T06:14:10;94865.72;;;12.31
20867;BMP280;10593;48.398;10.698;2023-12-22T06:16:36;94846.84;;;12.30
20867;BMP280;10593;48.398;10.698;2023-12-22T06:19:01;94855.47;;;12.29
20867;BMP280;10593;48.398;10.698;2023-12-22T06:21:27;94847.75;;;12.29
20867;BMP280;10593;48.398;10.698;2023-12-22T06:23:53;94855.47;;;12.29
20867;BMP280;10593;48.398;10.698;2023-12-22T06:26:19;94854.72;;;12.27
20867;BMP280;10593;48.398;10.698;2023-12-22T06:28:44;94867.59;;;12.27
20867;BMP280;10593;48.398;10.698;2023-12-22T06:31:20;94863.25;;;12.28
20867;BMP280;10593;48.398;10.698;2023-12-22T06:33:47;94859.03;;;12.27
20867;BMP280;10593;48.398;10.698;2023-12-22T06:36:19;94871.09;;;12.26
20867;BMP280;10593;48.398;10.698;2023-12-22T06:38:47;94871.09;;;12.26
20867;BMP280;10593;48.398;10.698;2023-12-22T06:41:24;94883.06;;;12.27
20867;BMP280;10593;48.398;10.698;2023-12-22T06:43:50;94906.28;;;12.26
20867;BMP280;10593;48.398;10.698;2023-12-22T06:46:21;94902.88;;;12.25
20867;BMP280;10593;48.398;10.698;2023-12-22T06:48:48;94912.38;;;12.23
20867;BMP280;10593;48.398;10.698;2023-12-22T06:51:27;94915.88;;;12.22
20867;BMP280;10593;48.398;10.698;2023-12-22T06:53:54;94928.75;;;12.22
20867;BMP280;10593;48.398;10.698;2023-12-22T06:56:25;94934.81;;;12.21
20867;BMP280;10593;48.398;10.698;2023-12-22T06:58:54;94929.66;;;12.21
20867;BMP280;10593;48.398;10.698;2023-12-22T07:01:32;94916.78;;;12.21
20867;BMP280;10593;48.398;10.698;2023-12-22T07:03:59;94909.06;;;12.21
20867;BMP280;10593;48.398;10.698;2023-12-22T07:06:30;94897.09;;;12.20
20867;BMP280;10593;48.398;10.698;2023-12-22T07:11:50;94933.09;;;12.22
20867;BMP280;10593;48.398;10.698;2023-12-22T07:14:17;94907.41;;;12.20
20867;BMP280;10593;48.398;10.698;2023-12-22T07:16:42;94921.13;;;12.21
20867;BMP280;10593;48.398;10.698;2023-12-22T07:19:08;94925.34;;;12.22
20867;BMP280;10593;48.398;10.698;2023-12-22T07:21:34;94929.66;;;12.21
20867;BMP280;10593;48.398;10.698;2023-12-22T07:24:00;94938.22;;;12.22
20867;BMP280;10593;48.398;10.698;2023-12-22T07:26:26;94959.66;;;12.22
20867;BMP280;10593;48.398;10.698;2023-12-22T07:28:53;94975.09;;;12.22
20867;BMP280;10593;48.398;10.698;2023-12-22T07:31:19;94981.09;;;12.23
20867;BMP280;10593;48.398;10.698;2023-12-22T07:33:45;94982.81;;;12.22
20867;BMP280;10593;48.398;10.698;2023-12-22T07:36:11;94999.13;;;12.23
20867;BMP280;10593;48.398;10.698;2023-12-22T07:38:38;94997.44;;;12.22
20867;BMP280;10593;48.398;10.698;2023-12-22T07:41:05;95003.41;;;12.22
20867;BMP280;10593;48.398;10.698;2023-12-22T07:43:31;95004.28;;;12.23
20867;BMP280;10593;48.398;10.698;2023-12-22T07:45:57;95009.41;;;12.23
20867;BMP280;10593;48.398;10.698;2023-12-22T07:48:23;95000.84;;;12.22
20867;BMP280;10593;48.398;10.698;2023-12-22T07:50:49;94993.97;;;12.23
20867;BMP280;10593;48.398;10.698;2023-12-22T07:53:15;94986.25;;;12.23
20867;BMP280;10593;48.398;10.698;2023-12-22T07:55:41;95006.78;;;12.24
20867;BMP280;10593;48.398;10.698;2023-12-22T07:58:07;95005.94;;;12.24
20867;BMP280;10593;48.398;10.698;2023-12-22T08:00:33;95007.59;;;12.25
20867;BMP280;10593;48.398;10.698;2023-12-22T08:02:59;94998.97;;;12.26
20867;BMP280;10593;48.398;10.698;2023-12-22T08:05:26;95011.84;;;12.26
20867;BMP280;10593;48.398;10.698;2023-12-22T08:07:52;95025.56;;;12.26
20867;BMP280;10593;48.398;10.698;2023-12-22T08:10:17;95027.25;;;12.27
20867;BMP280;10593;48.398;10.698;2023-12-22T08:12:43;95031.50;;;12.28
20867;BMP280;10593;48.398;10.698;2023-12-22T08:15:09;95051.19;;;12.29
20867;BMP280;10593;48.398;10.698;2023-12-22T08:17:45;95059.72;;;12.30
20867;BMP280;10593;48.398;10.698;2023-12-22T08:20:16;95063.16;;;12.30
20867;BMP280;10593;48.398;10.698;2023-12-22T08:22:41;95054.59;;;12.30
20867;BMP280;10593;48.398;10.698;2023-12-22T08:25:07;95064.00;;;12.31
20867;BMP280;10593;48.398;10.698;2023-12-22T08:27:33;95072.59;;;12.30
20867;BMP280;10593;48.398;10.698;2023-12-22T08:29:59;95071.75;;;12.31
20867;BMP280;10593;48.398;10.698;2023-12-22T08:32:25;95089.69;;;12.32
20867;BMP280;10593;48.398;10.698;2023-12-22T08:34:50;95091.34;;;12.33
20867;BMP280;10593;48.398;10.698;2023-12-22T08:37:16;95093.09;;;12.33
20867;BMP280;10593;48.398;10.698;2023-12-22T08:39:42;95086.19;;;12.33
20867;BMP280;10593;48.398;10.698;2023-12-22T08:42:07;95091.28;;;12.35
20867;BMP280;10593;48.398;10.698;2023-12-22T08:44:33;95094.69;;;12.35
20867;BMP280;10593;48.398;10.698;2023-12-22T08:46:59;95098.13;;;12.36
20867;BMP280;10593;48.398;10.698;2023-12-22T08:49:24;95098.06;;;12.37
20867;BMP280;10593;48.398;10.698;2023-12-22T08:51:50;95092.91;;;12.37
20867;BMP280;10593;48.398;10.698;2023-12-22T08:54:16;95088.59;;;12.38
20867;BMP280;10593;48.398;10.698;2023-12-22T08:56:42;95090.34;;;12.37
20867;BMP280;10593;48.398;10.698;2023-12-22T08:59:07;95088.53;;;12.39
20867;BMP280;10593;48.398;10.698;2023-12-22T09:01:34;95093.69;;;12.39
20867;BMP280;10593;48.398;10.698;2023-12-22T09:04:00;95093.59;;;12.41
20867;BMP280;10593;48.398;10.698;2023-12-22T09:06:27;95097.84;;;12.42
20867;BMP280;10593;48.398;10.698;2023-12-22T09:08:53;95084.97;;;12.42
20867;BMP280;10593;48.398;10.698;2023-12-22T09:11:20;95088.38;;;12.42
20867;BMP280;10593;48.398;10.698;2023-12-22T09:13:46;95082.38;;;12.42
20867;BMP280;10593;48.398;10.698;2023-12-22T09:16:12;95079.81;;;12.42
20867;BMP280;10593;48.398;10.698;2023-12-22T09:18:41;95096.13;;;12.42
20867;BMP280;10593;48.398;10.698;2023-12-22T09:21:08;95095.22;;;12.43
20867;BMP280;10593;48.398;10.698;2023-12-22T09:23:33;95114.91;;;12.44
20867;BMP280;10593;48.398;10.698;2023-12-22T09:25:59;95096.88;;;12.44
20867;BMP280;10593;48.398;10.698;2023-12-22T09:28:24;95099.47;;;12.44
20867;BMP280;10593;48.398;10.698;2023-12-22T09:30:50;95101.97;;;12.46
20867;BMP280;10593;48.398;10.698;2023-12-22T09:33:16;95105.38;;;12.46
20867;BMP280;10593;48.398;10.698;2023-12-22T09:35:42;95111.44;;;12.45
20867;BMP280;10593;48.398;10.698;2023-12-22T09:38:09;95107.94;;;12.46
20867;BMP280;10593;48.398;10.698;2023-12-22T09:40:35;95121.69;;;12.47
20867;BMP280;10593;48.398;10.698;2023-12-22T09:43:06;95110.53;;;12.46
20867;BMP280;10593;48.398;10.698;2023-12-22T09:45:33;95104.56;;;12.46
20867;BMP280;10593;48.398;10.698;2023-12-22T09:48:00;95118.25;;;12.46
20867;BMP280;10593;48.398;10.698;2023-12-22T09:50:27;95118.19;;;12.48
20867;BMP280;10593;48.398;10.698;2023-12-22T09:52:54;95125.94;;;12.48
20867;BMP280;10593;48.398;10.698;2023-12-22T09:55:22;95124.19;;;12.48
20867;BMP280;10593;48.398;10.698;2023-12-22T09:57:49;95119.94;;;12.47
20867;BMP280;10593;48.398;10.698;2023-12-22T10:00:17;95113.06;;;12.48
20867;BMP280;10593;48.398;10.698;2023-12-22T10:02:43;95108.72;;;12.48
20867;BMP280;10593;48.398;10.698;2023-12-22T10:05:11;95106.13;;;12.48
20867;BMP280;10593;48.398;10.698;2023-12-22T10:07:44;95099.25;;;12.48
20867;BMP280;10593;48.398;10.698;2023-12-22T10:10:11;95088.97;;;12.48
20867;BMP280;10593;48.398;10.698;2023-12-22T10:12:38;95091.44;;;12.50
20867;BMP280;10593;48.398;10.698;2023-12-22T10:15:07;95091.53;;;12.48
20867;BMP280;10593;48.398;10.698;2023-12-22T10:17:35;95088.06;;;12.49
20867;BMP280;10593;48.398;10.698;2023-12-22T10:20:01;95096.69;;;12.48
20867;BMP280;10593;48.398;10.698;2023-12-22T10:22:28;95100.94;;;12.49
20867;BMP280;10593;48.398;10.698;2023-12-22T10:24:54;95100.09;;;12.49
20867;BMP280;10593;48.398;10.698;2023-12-22T10:27:21;95095.78;;;12.49
20867;BMP280;10593;48.398;10.698;2023-12-22T10:29:56;95069.13;;;12.50
20867;BMP280;10593;48.398;10.698;2023-12-22T10:32:22;95078.56;;;12.50
20867;BMP280;10593;48.398;10.698;2023-12-22T10:34:51;95079.47;;;12.49
20867;BMP280;10593;48.398;10.698;2023-12-22T10:37:17;95081.16;;;12.50
20867;BMP280;10593;48.398;10.698;2023-12-22T10:39:43;95088.00;;;12.51
20867;BMP280;10593;48.398;10.698;2023-12-22T10:42:09;95070.03;;;12.49
20867;BMP280;10593;48.398;10.698;2023-12-22T10:44:40;95082.84;;;12.51
20867;BMP280;10593;48.398;10.698;2023-12-22T10:47:06;95066.53;;;12.50
20867;BMP280;10593;48.398;10.698;2023-12-22T10:49:32;95079.38;;;12.52
20867;BMP280;10593;48.398;10.698;2023-12-22T10:51:57;95075.13;;;12.51
20867;BMP280;10593;48.398;10.698;2023-12-22T10:54:23;95073.38;;;12.51
20867;BMP280;10593;48.398;10.698;2023-12-22T10:56:49;95069.13;;;12.50
20867;BMP280;10593;48.398;10.698;2023-12-22T10:59:23;95073.31;;;12.53
20867;BMP280;10593;48.398;10.698;2023-12-22T11:01:51;95075.94;;;12.51
20867;BMP280;10593;48.398;10.698;2023-12-22T11:04:21;95073.31;;;12.53
20867;BMP280;10593;48.398;10.698;2023-12-22T11:06:49;95081.84;;;12.53
20867;BMP280;10593;48.398;10.698;2023-12-22T11:09:21;95078.38;;;12.54
20867;BMP280;10593;48.398;10.698;2023-12-22T11:11:48;95073.22;;;12.54
20867;BMP280;10593;48.398;10.698;2023-12-22T11:14:16;95079.22;;;12.55
20867;BMP280;10593;48.398;10.698;2023-12-22T11:16:43;95092.03;;;12.56
20867;BMP280;10593;48.398;10.698;2023-12-22T11:19:14;95081.72;;;12.56
20867;BMP280;10593;48.398;10.698;2023-12-22T11:21:40;95091.16;;;12.57
20867;BMP280;10593;48.398;10.698;2023-12-22T11:24:07;95083.41;;;12.57
20867;BMP280;10593;48.398;10.698;2023-12-22T11:26:33;95078.19;;;12.59
20867;BMP280;10593;48.398;10.698;2023-12-22T11:28:59;95057.56;;;12.59
20867;BMP280;10593;48.398;10.698;2023-12-22T11:31:31;95058.31;;;12.61
20867;BMP280;10593;48.398;10.698;2023-12-22T11:33:58;95043.72;;;12.61
20867;BMP280;10593;48.398;10.698;2023-12-22T11:36:29;95039.38;;;12.62
20867;BMP280;10593;48.398;10.698;2023-12-22T11:38:55;95041.97;;;12.62
20867;BMP280;10593;48.398;10.698;2023-12-22T11:41:27;95048.78;;;12.63
20867;BMP280;10593;48.398;10.698;2023-12-22T11:43:56;95039.31;;;12.63
20867;BMP280;10593;48.398;10.698;2023-12-22T11:46:22;95038.41;;;12.64
20867;BMP280;10593;48.398;10.698;2023-12-22T11:48:52;95035.78;;;12.66
20867;BMP280;10593;48.398;10.698;2023-12-22T11:51:19;95019.47;;;12.65
20867;BMP280;10593;48.398;10.698;2023-12-22T11:53:45;95016.00;;;12.66
20867;BMP280;10593;48.398;10.698;2023-12-22T11:56:12;95028.88;;;12.66
20867;BMP280;10593;48.398;10.698;2023-12-22T11:58:42;95027.16;;;12.67
20867;BMP280;10593;48.398;10.698;2023-12-22T12:01:13;95016.84;;;12.67
20867;BMP280;10593;48.398;10.698;2023-12-22T12:03:52;95010.78;;;12.68
20867;BMP280;10593;48.398;10.698;2023-12-22T12:08:55;95028.81;;;12.68
20867;BMP280;10593;48.398;10.698;2023-12-22T12:11:22;95012.50;;;12.67
20867;BMP280;10593;48.398;10.698;2023-12-22T12:13:49;95004.72;;;12.69
20867;BMP280;10593;48.398;10.698;2023-12-22T12:16:20;94995.22;;;12.69
20867;BMP280;10593;48.398;10.698;2023-12-22T12:18:50;94988.34;;;12.70
20867;BMP280;10593;48.398;10.698;2023-12-22T12:21:18;94996.09;;;12.70
20867;BMP280;10593;48.398;10.698;2023-12-22T12:23:44;94998.59;;;12.71
20867;BMP280;10593;48.398;10.698;2023-12-22T12:26:11;94987.44;;;12.71
20867;BMP280;10593;48.398;10.698;2023-12-22T12:28:38;94990.03;;;12.71
20867;BMP280;10593;48.398;10.698;2023-12-22T12:31:08;94971.97;;;12.71
20867;BMP280;10593;48.398;10.698;2023-12-22T12:33:35;94966.84;;;12.71
20867;BMP280;10593;48.398;10.698;2023-12-22T12:36:02;94956.53;;;12.71
20867;BMP280;10593;48.398;10.698;2023-12-22T12:38:55;94954.84;;;12.70
20867;BMP280;10593;48.398;10.698;2023-12-22T12:41:31;94944.53;;;12.70
20867;BMP280;10593;48.398;10.698;2023-12-22T12:43:58;94942.03;;;12.68
20867;BMP280;10593;48.398;10.698;2023-12-22T12:46:44;94932.56;;;12.69
20867;BMP280;10593;48.398;10.698;2023-12-22T12:49:11;94937.72;;;12.69
20867;BMP280;10593;48.398;10.698;2023-12-22T12:51:39;94924.84;;;12.69
20867;BMP280;10593;48.398;10.698;2023-12-22T12:54:06;94926.50;;;12.70
20867;BMP280;10593;48.398;10.698;2023-12-22T12:56:43;94912.72;;;12.71
20867;BMP280;10593;48.398;10.698;2023-12-22T12:59:10;94902.41;;;12.71
20867;BMP280;10593;48.398;10.698;2023-12-22T13:01:46;94897.19;;;12.72
20867;BMP280;10593;48.398;10.698;2023-12-22T13:04:13;94886.94;;;12.71
20867;BMP280;10593;48.398;10.698;2023-12-22T13:06:49;94886.03;;;12.72
20867;BMP280;10593;48.398;10.698;2023-12-22T13:09:15;94889.47;;;12.72
20867;BMP280;10593;48.398;10.698;2023-12-22T13:11:43;94888.63;;;12.72
20867;BMP280;10593;48.398;10.698;2023-12-22T13:14:22;94861.13;;;12.72
20867;BMP280;10593;48.398;10.698;2023-12-22T13:16:54;94870.56;;;12.72
20867;BMP280;10593;48.398;10.698;2023-12-22T13:19:22;94870.56;;;12.72
20867;BMP280;10593;48.398;10.698;2023-12-22T13:21:50;94865.41;;;12.72
20867;BMP280;10593;48.398;10.698;2023-12-22T13:24:17;94884.31;;;12.72
20867;BMP280;10593;48.398;10.698;2023-12-22T13:26:44;94867.09;;;12.73
20867;BMP280;10593;48.398;10.698;2023-12-22T13:29:11;94873.91;;;12.74
20867;BMP280;10593;48.398;10.698;2023-12-22T13:31:41;94860.97;;;12.75
20867;BMP280;10593;48.398;10.698;2023-12-22T13:34:12;94861.78;;;12.76
20867;BMP280;10593;48.398;10.698;2023-12-22T13:36:40;94860.97;;;12.75
20867;BMP280;10593;48.398;10.698;2023-12-22T13:39:08;94866.94;;;12.76
20867;BMP280;10593;48.398;10.698;2023-12-22T13:41:44;94849.81;;;12.75
20867;BMP280;10593;48.398;10.698;2023-12-22T13:44:14;94851.47;;;12.76
20867;BMP280;10593;48.398;10.698;2023-12-22T13:46:40;94843.75;;;12.76
20867;BMP280;10593;48.398;10.698;2023-12-22T13:49:11;94861.78;;;12.76
20867;BMP280;10593;48.398;10.698;2023-12-22T13:51:44;94860.91;;;12.77
20867;BMP280;10593;48.398;10.698;2023-12-22T13:54:11;94848.00;;;12.77
20867;BMP280;10593;48.398;10.698;2023-12-22T13:56:38;94848.00;;;12.77
20867;BMP280;10593;48.398;10.698;2023-12-22T13:59:06;94860.00;;;12.78
20867;BMP280;10593;48.398;10.698;2023-12-22T14:01:32;94854.84;;;12.78
20867;BMP280;10593;48.398;10.698;2023-12-22T14:03:59;94861.66;;;12.79
20867;BMP280;10593;48.398;10.698;2023-12-22T14:06:28;94861.66;;;12.79